sensor_id;sensor_type;location;lat;lon;timestamp;pressure;altitude;pressure_sealevel;temperature;humidity
6514;BME280;3290;47.716;9.070;2022-10-16T00:01:30;96951.38;;;15.27;100.00
6514;BME280;3290;47.716;9.070;2022-10-16T00:03:58;96948.03;;;15.15;100.00
6514;BME280;3290;47.716;9.070;2022-10-16T00:06:26;96941.22;;;15.03;100.00
6514;BME280;3290;47.716;9.070;2022-10-16T00:08:52;96934.03;;;14.98;100.00
6514;BME280;3290;47.716;9.070;2022-10-16T00:13:48;96934.16;;;15.08;100.00
6514;BME280;3290;47.716;9.070;2022-10-16T00:16:15;96930.97;;;15.06;100.00
6514;BME280;3290;47.716;9.070;2022-10-16T00:18:41;96935.47;;;15.06;100.00
6514;BME280;3290;47.716;9.070;2022-10-16T00:21:10;96935.47;;;14.89;100.00
6514;BME280;3290;47.716;9.070;2022-10-16T00:23:36;96927.94;;;14.98;100.00
6514;BME280;3290;47.716;9.070;2022-10-16T00:26:04;96931.78;;;15.07;100.00
6514;BME280;3290;47.716;9.070;2022-10-16T00:28:30;96937.78;;;15.19;100.00
6514;BME280;3290;47.716;9.070;2022-10-16T00:30:56;96933.13;;;15.25;100.00
6514;BME280;3290;47.716;9.070;2022-10-16T00:33:22;96925.88;;;15.16;100.00
6514;BME280;3290;47.716;9.070;2022-10-16T00:35:48;96932.91;;;15.27;100.00
6514;BME280;3290;47.716;9.070;2022-10-16T00:38:13;96935.00;;;15.25;100.00
6514;BME280;3290;47.716;9.070;2022-10-16T00:40:39;96940.28;;;15.25;100.00
6514;BME280;3290;47.716;9.070;2022-10-16T00:43:13;96934.31;;;15.34;100.00
6514;BME280;3290;47.716;9.070;2022-10-16T00:45:39;96941.81;;;15.21;100.00
6514;BME280;3290;47.716;9.070;2022-10-16T00:48:10;96931.28;;;15.42;100.00
6514;BME280;3290;47.716;9.070;2022-10-16T00:50:37;96934.44;;;15.23;100.00
6514;BME280;3290;47.716;9.070;2022-10-16T00:53:04;96936.44;;;15.16;100.00
6514;BME280;3290;47.716;9.070;2022-10-16T00:55:30;96931.59;;;15.13;100.00
6514;BME280;3290;47.716;9.070;2022-10-16T00:57:56;96941.88;;;15.26;100.00
6514;BME280;3290;47.716;9.070;2022-10-16T01:00:25;96943.09;;;15.40;100.00
6514;BME280;3290;47.716;9.070;2022-10-16T01:02:56;96940.91;;;15.32;100.00
6514;BME280;3290;47.716;9.070;2022-10-16T01:05:24;96935.97;;;15.19;100.00
6514;BME280;3290;47.716;9.070;2022-10-16T01:08:12;96935.97;;;15.19;100.00
6514;BME280;3290;47.716;9.070;2022-10-16T01:10:57;96935.53;;;15.27;100.00
6514;BME280;3290;47.716;9.070;2022-10-16T01:13:29;96939.78;;;15.28;100.00
6514;BME280;3290;47.716;9.070;2022-10-16T01:16:08;96941.28;;;15.24;100.00
6514;BME280;3290;47.716;9.070;2022-10-16T01:18:43;96949.28;;;15.29;100.00
6514;BME280;3290;47.716;9.070;2022-10-16T01:21:22;96950.38;;;15.49;100.00
6514;BME280;3290;47.716;9.070;2022-10-16T01:26:42;96941.63;;;15.11;100.00
6514;BME280;3290;47.716;9.070;2022-10-16T01:29:25;96950.66;;;15.15;100.00
6514;BME280;3290;47.716;9.070;2022-10-16T01:32:00;96960.41;;;15.31;100.00
6514;BME280;3290;47.716;9.070;2022-10-16T01:34:49;96957.84;;;15.52;100.00
6514;BME280;3290;47.716;9.070;2022-10-16T01:37:21;96963.84;;;15.69;100.00
6514;BME280;3290;47.716;9.070;2022-10-16T01:39:49;96963.97;;;15.58;100.00
6514;BME280;3290;47.716;9.070;2022-10-16T01:42:22;96960.41;;;15.47;100.00
6514;BME280;3290;47.716;9.070;2022-10-16T01:44:50;96970.75;;;15.54;100.00
6514;BME280;3290;47.716;9.070;2022-10-16T01:47:17;96960.81;;;15.61;100.00
6514;BME280;3290;47.716;9.070;2022-10-16T01:49:45;96964.84;;;15.63;100.00
6514;BME280;3290;47.716;9.070;2022-10-16T01:52:15;96972.22;;;15.45;100.00
6514;BME280;3290;47.716;9.070;2022-10-16T01:54:46;96974.28;;;15.59;100.00
6514;BME280;3290;47.716;9.070;2022-10-16T01:57:14;96966.34;;;15.59;100.00
6514;BME280;3290;47.716;9.070;2022-10-16T01:59:47;96966.19;;;15.65;100.00
6514;BME280;3290;47.716;9.070;2022-10-16T02:02:17;96967.56;;;15.68;100.00
6514;BME280;3290;47.716;9.070;2022-10-16T02:04:46;96962.91;;;15.59;100.00
6514;BME280;3290;47.716;9.070;2022-10-16T02:07:13;96957.38;;;15.39;100.00
6514;BME280;3290;47.716;9.070;2022-10-16T02:09:39;96952.63;;;15.41;100.00
6514;BME280;3290;47.716;9.070;2022-10-16T02:14:42;96975.06;;;15.22;100.00
6514;BME280;3290;47.716;9.070;2022-10-16T02:17:13;96972.84;;;15.52;100.00
6514;BME280;3290;47.716;9.070;2022-10-16T02:19:39;96969.75;;;15.55;100.00
6514;BME280;3290;47.716;9.070;2022-10-16T02:22:07;96963.44;;;15.56;100.00
6514;BME280;3290;47.716;9.070;2022-10-16T02:29:43;96965.91;;;15.46;100.00
6514;BME280;3290;47.716;9.070;2022-10-16T02:32:15;96966.50;;;15.31;100.00
6514;BME280;3290;47.716;9.070;2022-10-16T02:34:42;96969.19;;;15.53;100.00
6514;BME280;3290;47.716;9.070;2022-10-16T02:37:08;96974.31;;;15.43;100.00
6514;BME280;3290;47.716;9.070;2022-10-16T02:39:35;96952.50;;;15.31;100.00
6514;BME280;3290;47.716;9.070;2022-10-16T02:42:02;96940.47;;;15.40;100.00
6514;BME280;3290;47.716;9.070;2022-10-16T02:44:27;96939.84;;;15.70;100.00
6514;BME280;3290;47.716;9.070;2022-10-16T02:46:53;96963.06;;;15.68;100.00
6514;BME280;3290;47.716;9.070;2022-10-16T02:49:18;96970.66;;;15.44;100.00
6514;BME280;3290;47.716;9.070;2022-10-16T02:51:43;96980.22;;;15.50;100.00
6514;BME280;3290;47.716;9.070;2022-10-16T02:54:09;96983.97;;;15.54;100.00
6514;BME280;3290;47.716;9.070;2022-10-16T02:56:34;96972.75;;;15.63;100.00
6514;BME280;3290;47.716;9.070;2022-10-16T02:58:59;96968.09;;;15.49;100.00
6514;BME280;3290;47.716;9.070;2022-10-16T03:01:25;96952.56;;;15.52;100.00
6514;BME280;3290;47.716;9.070;2022-10-16T03:03:50;96955.50;;;15.56;100.00
6514;BME280;3290;47.716;9.070;2022-10-16T03:06:16;96951.66;;;15.47;100.00
6514;BME280;3290;47.716;9.070;2022-10-16T03:08:41;96947.91;;;15.43;100.00
6514;BME280;3290;47.716;9.070;2022-10-16T03:11:07;96936.69;;;15.52;100.00
6514;BME280;3290;47.716;9.070;2022-10-16T03:13:32;96937.59;;;15.62;100.00
6514;BME280;3290;47.716;9.070;2022-10-16T03:15:57;96944.25;;;15.44;100.00
6514;BME280;3290;47.716;9.070;2022-10-16T03:18:23;96956.06;;;15.41;100.00
6514;BME280;3290;47.716;9.070;2022-10-16T03:20:48;96961.13;;;15.64;100.00
6514;BME280;3290;47.716;9.070;2022-10-16T03:23:13;96963.47;;;15.61;100.00
6514;BME280;3290;47.716;9.070;2022-10-16T03:25:39;96960.19;;;15.54;100.00
6514;BME280;3290;47.716;9.070;2022-10-16T03:28:04;96965.63;;;15.63;100.00
6514;BME280;3290;47.716;9.070;2022-10-16T03:30:30;96974.72;;;15.72;100.00
6514;BME280;3290;47.716;9.070;2022-10-16T03:32:55;96969.94;;;15.69;100.00
6514;BME280;3290;47.716;9.070;2022-10-16T03:35:21;96978.44;;;15.55;100.00
6514;BME280;3290;47.716;9.070;2022-10-16T03:37:47;96971.56;;;15.33;100.00
6514;BME280;3290;47.716;9.070;2022-10-16T03:40:12;96982.97;;;15.38;100.00
6514;BME280;3290;47.716;9.070;2022-10-16T03:42:38;96987.25;;;15.61;100.00
6514;BME280;3290;47.716;9.070;2022-10-16T03:45:04;96981.97;;;15.61;100.00
6514;BME280;3290;47.716;9.070;2022-10-16T03:47:29;96994.22;;;15.66;100.00
6514;BME280;3290;47.716;9.070;2022-10-16T03:49:54;96986.94;;;15.57;100.00
6514;BME280;3290;47.716;9.070;2022-10-16T03:52:20;96998.72;;;15.50;100.00
6514;BME280;3290;47.716;9.070;2022-10-16T03:54:45;96998.22;;;15.53;100.00
6514;BME280;3290;47.716;9.070;2022-10-16T03:57:10;96998.78;;;15.55;100.00
6514;BME280;3290;47.716;9.070;2022-10-16T03:59:36;96996.22;;;15.60;100.00
6514;BME280;3290;47.716;9.070;2022-10-16T04:02:01;96995.91;;;15.56;100.00
6514;BME280;3290;47.716;9.070;2022-10-16T04:04:27;96990.78;;;15.50;100.00
6514;BME280;3290;47.716;9.070;2022-10-16T04:06:52;96993.53;;;15.22;100.00
6514;BME280;3290;47.716;9.070;2022-10-16T04:09:17;97001.13;;;15.19;100.00
6514;BME280;3290;47.716;9.070;2022-10-16T04:11:43;96999.13;;;15.09;100.00
6514;BME280;3290;47.716;9.070;2022-10-16T04:14:08;96989.94;;;15.28;100.00
6514;BME280;3290;47.716;9.070;2022-10-16T04:16:33;96998.50;;;15.35;100.00
6514;BME280;3290;47.716;9.070;2022-10-16T04:18:59;96991.44;;;15.24;100.00
6514;BME280;3290;47.716;9.070;2022-10-16T04:21:24;96998.81;;;15.22;100.00
6514;BME280;3290;47.716;9.070;2022-10-16T04:23:49;97003.06;;;15.23;100.00
6514;BME280;3290;47.716;9.070;2022-10-16T04:26:15;96999.38;;;15.24;100.00
6514;BME280;3290;47.716;9.070;2022-10-16T04:28:40;96989.41;;;15.26;100.00
6514;BME280;3290;47.716;9.070;2022-10-16T04:31:06;96998.09;;;15.10;100.00
6514;BME280;3290;47.716;9.070;2022-10-16T04:33:33;96989.78;;;15.18;100.00
6514;BME280;3290;47.716;9.070;2022-10-16T04:36:01;96999.13;;;15.09;100.00
6514;BME280;3290;47.716;9.070;2022-10-16T04:38:27;96999.25;;;15.03;100.00
6514;BME280;3290;47.716;9.070;2022-10-16T04:40:53;97001.63;;;15.16;100.00
6514;BME280;3290;47.716;9.070;2022-10-16T04:43:18;96994.16;;;15.13;100.00
6514;BME280;3290;47.716;9.070;2022-10-16T04:45:44;97004.09;;;15.22;100.00
6514;BME280;3290;47.716;9.070;2022-10-16T04:48:09;97007.16;;;15.14;100.00
6514;BME280;3290;47.716;9.070;2022-10-16T04:50:35;97015.28;;;15.29;100.00
6514;BME280;3290;47.716;9.070;2022-10-16T04:53:00;97014.84;;;15.16;100.00
6514;BME280;3290;47.716;9.070;2022-10-16T04:55:25;97015.63;;;15.16;100.00
6514;BME280;3290;47.716;9.070;2022-10-16T04:57:51;97017.25;;;15.17;100.00
6514;BME280;3290;47.716;9.070;2022-10-16T05:00:16;97015.16;;;15.19;100.00
6514;BME280;3290;47.716;9.070;2022-10-16T05:02:42;97012.22;;;15.04;100.00
6514;BME280;3290;47.716;9.070;2022-10-16T05:05:07;97013.19;;;14.98;100.00
6514;BME280;3290;47.716;9.070;2022-10-16T05:07:33;97015.97;;;15.08;100.00
6514;BME280;3290;47.716;9.070;2022-10-16T05:09:58;97027.41;;;14.97;100.00
6514;BME280;3290;47.716;9.070;2022-10-16T05:12:24;97017.03;;;15.07;100.00
6514;BME280;3290;47.716;9.070;2022-10-16T05:14:49;97020.34;;;15.14;100.00
6514;BME280;3290;47.716;9.070;2022-10-16T05:17:14;97020.34;;;15.14;100.00
6514;BME280;3290;47.716;9.070;2022-10-16T05:19:40;97020.16;;;15.04;100.00
6514;BME280;3290;47.716;9.070;2022-10-16T05:22:05;97018.28;;;15.05;100.00
6514;BME280;3290;47.716;9.070;2022-10-16T05:24:30;97016.56;;;15.10;100.00
6514;BME280;3290;47.716;9.070;2022-10-16T05:26:56;97016.97;;;15.19;100.00
6514;BME280;3290;47.716;9.070;2022-10-16T05:29:21;97012.69;;;15.01;100.00
6514;BME280;3290;47.716;9.070;2022-10-16T05:31:50;97017.19;;;15.01;100.00
6514;BME280;3290;47.716;9.070;2022-10-16T05:34:15;97018.63;;;15.08;100.00
6514;BME280;3290;47.716;9.070;2022-10-16T05:36:41;97031.34;;;15.11;100.00
6514;BME280;3290;47.716;9.070;2022-10-16T05:39:06;97036.38;;;15.13;100.00
6514;BME280;3290;47.716;9.070;2022-10-16T05:41:32;97039.78;;;15.24;100.00
6514;BME280;3290;47.716;9.070;2022-10-16T05:43:57;97031.91;;;15.13;100.00
6514;BME280;3290;47.716;9.070;2022-10-16T05:46:22;97039.50;;;15.10;100.00
6514;BME280;3290;47.716;9.070;2022-10-16T05:48:48;97044.09;;;15.14;100.00
6514;BME280;3290;47.716;9.070;2022-10-16T05:51:14;97038.81;;;15.14;100.00
6514;BME280;3290;47.716;9.070;2022-10-16T05:53:40;97037.53;;;15.17;100.00
6514;BME280;3290;47.716;9.070;2022-10-16T05:56:07;97038.69;;;15.09;100.00
6514;BME280;3290;47.716;9.070;2022-10-16T05:58:35;97054.81;;;15.24;100.00
6514;BME280;3290;47.716;9.070;2022-10-16T06:01:10;97047.38;;;15.21;100.00
6514;BME280;3290;47.716;9.070;2022-10-16T06:06:36;97044.97;;;15.20;100.00
6514;BME280;3290;47.716;9.070;2022-10-16T06:09:03;97040.34;;;15.26;100.00
6514;BME280;3290;47.716;9.070;2022-10-16T06:11:31;97046.03;;;15.35;100.00
6514;BME280;3290;47.716;9.070;2022-10-16T06:14:00;97050.00;;;15.37;100.00
6514;BME280;3290;47.716;9.070;2022-10-16T06:16:28;97050.50;;;15.34;100.00
6514;BME280;3290;47.716;9.070;2022-10-16T06:18:55;97053.31;;;15.28;100.00
6514;BME280;3290;47.716;9.070;2022-10-16T06:21:25;97057.69;;;15.39;100.00
6514;BME280;3290;47.716;9.070;2022-10-16T06:23:51;97054.63;;;15.47;100.00
6514;BME280;3290;47.716;9.070;2022-10-16T06:26:19;97054.81;;;15.57;100.00
6514;BME280;3290;47.716;9.070;2022-10-16T06:28:45;97062.88;;;15.66;100.00
6514;BME280;3290;47.716;9.070;2022-10-16T06:31:11;97055.59;;;15.73;100.00
6514;BME280;3290;47.716;9.070;2022-10-16T06:33:37;97058.47;;;15.72;100.00
6514;BME280;3290;47.716;9.070;2022-10-16T06:36:08;97070.44;;;15.96;100.00
6514;BME280;3290;47.716;9.070;2022-10-16T06:38:34;97080.06;;;15.85;100.00
6514;BME280;3290;47.716;9.070;2022-10-16T06:41:00;97081.50;;;15.76;100.00
6514;BME280;3290;47.716;9.070;2022-10-16T06:43:26;97086.25;;;15.74;100.00
6514;BME280;3290;47.716;9.070;2022-10-16T06:45:56;97090.31;;;15.82;100.00
6514;BME280;3290;47.716;9.070;2022-10-16T06:48:22;97093.97;;;15.97;100.00
6514;BME280;3290;47.716;9.070;2022-10-16T06:51:08;97099.69;;;15.89;100.00
6514;BME280;3290;47.716;9.070;2022-10-16T06:53:35;97103.16;;;15.73;100.00
6514;BME280;3290;47.716;9.070;2022-10-16T06:56:11;97105.91;;;15.83;100.00
6514;BME280;3290;47.716;9.070;2022-10-16T06:58:37;97112.25;;;15.82;100.00
6514;BME280;3290;47.716;9.070;2022-10-16T07:01:04;97110.88;;;15.96;100.00
6514;BME280;3290;47.716;9.070;2022-10-16T07:03:30;97128.75;;;15.89;100.00
6514;BME280;3290;47.716;9.070;2022-10-16T07:05:55;97140.91;;;15.90;100.00
6514;BME280;3290;47.716;9.070;2022-10-16T07:08:21;97137.69;;;16.04;100.00
6514;BME280;3290;47.716;9.070;2022-10-16T07:10:46;97142.41;;;16.02;100.00
6514;BME280;3290;47.716;9.070;2022-10-16T07:13:12;97143.16;;;15.98;100.00
6514;BME280;3290;47.716;9.070;2022-10-16T07:15:40;97139.47;;;15.99;100.00
6514;BME280;3290;47.716;9.070;2022-10-16T07:18:06;97141.94;;;16.05;100.00
6514;BME280;3290;47.716;9.070;2022-10-16T07:20:32;97134.44;;;15.81;100.00
6514;BME280;3290;47.716;9.070;2022-10-16T07:22:58;97137.00;;;15.93;100.00
6514;BME280;3290;47.716;9.070;2022-10-16T07:25:23;97133.22;;;16.05;100.00
6514;BME280;3290;47.716;9.070;2022-10-16T07:27:48;97142.16;;;16.37;100.00
6514;BME280;3290;47.716;9.070;2022-10-16T07:30:14;97145.28;;;16.17;100.00
6514;BME280;3290;47.716;9.070;2022-10-16T07:32:39;97148.03;;;16.06;100.00
6514;BME280;3290;47.716;9.070;2022-10-16T07:35:05;97139.38;;;16.27;100.00
6514;BME280;3290;47.716;9.070;2022-10-16T07:37:31;97146.50;;;16.10;100.00
6514;BME280;3290;47.716;9.070;2022-10-16T07:39:56;97146.44;;;16.21;100.00
6514;BME280;3290;47.716;9.070;2022-10-16T07:42:21;97153.97;;;16.29;100.00
6514;BME280;3290;47.716;9.070;2022-10-16T07:44:47;97168.66;;;16.42;100.00
6514;BME280;3290;47.716;9.070;2022-10-16T07:47:12;97169.34;;;16.53;100.00
6514;BME280;3290;47.716;9.070;2022-10-16T07:49:37;97174.59;;;16.48;100.00
6514;BME280;3290;47.716;9.070;2022-10-16T07:52:03;97175.03;;;16.24;100.00
6514;BME280;3290;47.716;9.070;2022-10-16T07:54:28;97175.06;;;16.45;100.00
6514;BME280;3290;47.716;9.070;2022-10-16T07:56:54;97173.84;;;16.74;100.00
6514;BME280;3290;47.716;9.070;2022-10-16T07:59:19;97179.44;;;16.56;100.00
6514;BME280;3290;47.716;9.070;2022-10-16T08:01:44;97184.81;;;16.83;100.00
6514;BME280;3290;47.716;9.070;2022-10-16T08:04:10;97183.50;;;17.06;100.00
6514;BME280;3290;47.716;9.070;2022-10-16T08:06:36;97186.72;;;17.29;100.00
6514;BME280;3290;47.716;9.070;2022-10-16T08:09:03;97183.09;;;17.40;100.00
6514;BME280;3290;47.716;9.070;2022-10-16T08:11:29;97182.66;;;17.48;100.00
6514;BME280;3290;47.716;9.070;2022-10-16T08:13:54;97177.06;;;17.76;100.00
6514;BME280;3290;47.716;9.070;2022-10-16T08:16:19;97181.09;;;17.52;100.00
6514;BME280;3290;47.716;9.070;2022-10-16T08:18:45;97176.22;;;17.39;100.00
6514;BME280;3290;47.716;9.070;2022-10-16T08:21:16;97184.41;;;17.64;100.00
6514;BME280;3290;47.716;9.070;2022-10-16T08:23:42;97193.66;;;17.35;100.00
6514;BME280;3290;47.716;9.070;2022-10-16T08:26:09;97218.50;;;17.29;100.00
6514;BME280;3290;47.716;9.070;2022-10-16T08:28:35;97213.41;;;17.49;100.00
6514;BME280;3290;47.716;9.070;2022-10-16T08:31:10;97205.50;;;17.54;100.00
6514;BME280;3290;47.716;9.070;2022-10-16T08:33:37;97210.00;;;17.85;100.00
6514;BME280;3290;47.716;9.070;2022-10-16T08:36:05;97208.56;;;17.72;100.00
6514;BME280;3290;47.716;9.070;2022-10-16T08:38:30;97213.28;;;17.65;100.00
6514;BME280;3290;47.716;9.070;2022-10-16T08:41:10;97217.28;;;18.25;100.00
6514;BME280;3290;47.716;9.070;2022-10-16T08:47:01;97224.94;;;20.09;100.00
6514;BME280;3290;47.716;9.070;2022-10-16T08:49:27;97228.59;;;19.78;100.00
6514;BME280;3290;47.716;9.070;2022-10-16T08:51:55;97233.91;;;19.78;100.00
6514;BME280;3290;47.716;9.070;2022-10-16T08:56:57;97228.13;;;20.41;97.97
6514;BME280;3290;47.716;9.070;2022-10-16T08:59:26;97226.50;;;20.40;97.13
6514;BME280;3290;47.716;9.070;2022-10-16T09:01:52;97230.72;;;20.80;93.27
6514;BME280;3290;47.716;9.070;2022-10-16T09:07:36;97226.50;;;20.45;92.54
6514;BME280;3290;47.716;9.070;2022-10-16T09:13:14;97224.00;;;21.60;87.47
6514;BME280;3290;47.716;9.070;2022-10-16T09:15:50;97230.59;;;22.10;84.08
6514;BME280;3290;47.716;9.070;2022-10-16T09:23:32;97244.25;;;21.66;86.14
6514;BME280;3290;47.716;9.070;2022-10-16T09:25:59;97237.56;;;21.69;90.59
6514;BME280;3290;47.716;9.070;2022-10-16T09:28:25;97239.91;;;22.51;84.95
6514;BME280;3290;47.716;9.070;2022-10-16T09:30:51;97233.88;;;22.92;81.98
6514;BME280;3290;47.716;9.070;2022-10-16T09:33:19;97237.09;;;23.17;80.64
6514;BME280;3290;47.716;9.070;2022-10-16T09:35:50;97241.75;;;23.07;79.67
6514;BME280;3290;47.716;9.070;2022-10-16T09:38:27;97244.91;;;23.32;78.35
6514;BME280;3290;47.716;9.070;2022-10-16T09:40:54;97242.28;;;23.50;75.65
6514;BME280;3290;47.716;9.070;2022-10-16T09:43:24;97247.44;;;22.44;81.52
6514;BME280;3290;47.716;9.070;2022-10-16T09:46:01;97249.53;;;22.19;83.66
6514;BME280;3290;47.716;9.070;2022-10-16T09:48:36;97244.25;;;22.98;78.28
6514;BME280;3290;47.716;9.070;2022-10-16T09:51:04;97241.31;;;23.83;75.45
6514;BME280;3290;47.716;9.070;2022-10-16T09:53:44;97247.63;;;22.52;79.52
6514;BME280;3290;47.716;9.070;2022-10-16T09:56:23;97250.63;;;22.08;81.85
6514;BME280;3290;47.716;9.070;2022-10-16T09:58:54;97244.38;;;21.36;86.34
6514;BME280;3290;47.716;9.070;2022-10-16T10:01:21;97239.34;;;22.54;84.42
6514;BME280;3290;47.716;9.070;2022-10-16T10:03:48;97238.81;;;22.80;79.87
6514;BME280;3290;47.716;9.070;2022-10-16T10:06:27;97237.09;;;22.00;84.63
6514;BME280;3290;47.716;9.070;2022-10-16T10:11:59;97221.72;;;21.82;86.58
6514;BME280;3290;47.716;9.070;2022-10-16T10:14:31;97222.97;;;23.35;81.46
6514;BME280;3290;47.716;9.070;2022-10-16T10:19:29;97227.13;;;22.71;82.30
6514;BME280;3290;47.716;9.070;2022-10-16T10:21:55;97240.31;;;21.97;86.18
6514;BME280;3290;47.716;9.070;2022-10-16T10:24:20;97227.00;;;22.86;83.12
6514;BME280;3290;47.716;9.070;2022-10-16T10:27:22;97233.16;;;23.51;80.76
6514;BME280;3290;47.716;9.070;2022-10-16T10:30:05;97226.38;;;24.63;73.82
6514;BME280;3290;47.716;9.070;2022-10-16T10:35:31;97224.53;;;24.46;74.87
6514;BME280;3290;47.716;9.070;2022-10-16T10:46:03;97208.16;;;24.92;71.16
6514;BME280;3290;47.716;9.070;2022-10-16T10:48:51;97208.13;;;25.59;68.53
6514;BME280;3290;47.716;9.070;2022-10-16T10:51:54;97220.66;;;25.77;66.16
6514;BME280;3290;47.716;9.070;2022-10-16T10:54:52;97220.69;;;26.20;65.90
6514;BME280;3290;47.716;9.070;2022-10-16T10:57:39;97212.53;;;25.90;65.92
6514;BME280;3290;47.716;9.070;2022-10-16T11:02:57;97213.44;;;25.24;69.42
6514;BME280;3290;47.716;9.070;2022-10-16T11:05:42;97201.59;;;25.25;71.42
6514;BME280;3290;47.716;9.070;2022-10-16T11:08:29;97203.34;;;25.56;68.67
6514;BME280;3290;47.716;9.070;2022-10-16T11:11:01;97204.78;;;25.40;67.63
6514;BME280;3290;47.716;9.070;2022-10-16T11:13:40;97198.00;;;24.76;69.46
6514;BME280;3290;47.716;9.070;2022-10-16T11:16:15;97194.63;;;24.84;73.23
6514;BME280;3290;47.716;9.070;2022-10-16T11:18:58;97197.63;;;26.71;64.72
6514;BME280;3290;47.716;9.070;2022-10-16T11:21:26;97199.69;;;25.65;63.96
6514;BME280;3290;47.716;9.070;2022-10-16T11:24:01;97184.66;;;26.21;64.86
6514;BME280;3290;47.716;9.070;2022-10-16T11:26:34;97175.34;;;26.79;59.03
6514;BME280;3290;47.716;9.070;2022-10-16T11:29:02;97176.53;;;26.86;58.26
6514;BME280;3290;47.716;9.070;2022-10-16T11:31:36;97173.13;;;26.81;60.95
6514;BME280;3290;47.716;9.070;2022-10-16T11:34:12;97171.50;;;27.01;61.26
6514;BME280;3290;47.716;9.070;2022-10-16T11:36:55;97160.50;;;27.20;57.53
6514;BME280;3290;47.716;9.070;2022-10-16T11:39:31;97154.31;;;26.81;59.84
6514;BME280;3290;47.716;9.070;2022-10-16T11:44:58;97158.50;;;26.87;60.28
6514;BME280;3290;47.716;9.070;2022-10-16T11:47:33;97157.00;;;26.20;62.44
6514;BME280;3290;47.716;9.070;2022-10-16T11:50:06;97157.75;;;25.42;63.67
6514;BME280;3290;47.716;9.070;2022-10-16T11:53:04;97158.28;;;24.91;64.96
6514;BME280;3290;47.716;9.070;2022-10-16T11:55:37;97157.38;;;24.82;64.48
6514;BME280;3290;47.716;9.070;2022-10-16T11:58:09;97158.19;;;24.24;68.85
6514;BME280;3290;47.716;9.070;2022-10-16T12:00:45;97155.94;;;24.00;70.30
6514;BME280;3290;47.716;9.070;2022-10-16T12:08:45;97153.00;;;24.59;66.15
6514;BME280;3290;47.716;9.070;2022-10-16T12:11:36;97153.59;;;24.12;67.16
6514;BME280;3290;47.716;9.070;2022-10-16T12:16:53;97150.91;;;25.36;64.18
6514;BME280;3290;47.716;9.070;2022-10-16T12:19:20;97150.25;;;25.66;65.57
6514;BME280;3290;47.716;9.070;2022-10-16T12:21:46;97144.38;;;25.99;64.29
6514;BME280;3290;47.716;9.070;2022-10-16T12:24:29;97147.13;;;26.08;63.59
6514;BME280;3290;47.716;9.070;2022-10-16T12:29:39;97133.31;;;26.83;56.68
6514;BME280;3290;47.716;9.070;2022-10-16T12:34:47;97128.44;;;27.57;50.98
6514;BME280;3290;47.716;9.070;2022-10-16T12:37:28;97131.13;;;26.93;48.28
6514;BME280;3290;47.716;9.070;2022-10-16T12:39:56;97128.13;;;26.86;50.61
6514;BME280;3290;47.716;9.070;2022-10-16T12:44:52;97118.19;;;27.03;49.51
6514;BME280;3290;47.716;9.070;2022-10-16T12:47:46;97113.06;;;26.85;49.44
6514;BME280;3290;47.716;9.070;2022-10-16T12:52:51;97113.69;;;27.54;47.53
6514;BME280;3290;47.716;9.070;2022-10-16T12:55:21;97109.84;;;28.22;46.87
6514;BME280;3290;47.716;9.070;2022-10-16T13:08:54;97122.63;;;25.52;50.97
6514;BME280;3290;47.716;9.070;2022-10-16T13:17:36;97123.63;;;26.43;49.09
6514;BME280;3290;47.716;9.070;2022-10-16T13:22:58;97121.06;;;26.77;50.48
6514;BME280;3290;47.716;9.070;2022-10-16T13:28:10;97116.75;;;26.98;51.58
6514;BME280;3290;47.716;9.070;2022-10-16T13:30:44;97118.94;;;27.68;49.88
6514;BME280;3290;47.716;9.070;2022-10-16T13:33:19;97111.63;;;28.10;50.49
6514;BME280;3290;47.716;9.070;2022-10-16T13:35:51;97114.47;;;27.72;49.72
6514;BME280;3290;47.716;9.070;2022-10-16T13:40:55;97122.38;;;28.81;47.17
6514;BME280;3290;47.716;9.070;2022-10-16T13:46:13;97119.41;;;27.70;50.40
6514;BME280;3290;47.716;9.070;2022-10-16T13:48:39;97115.25;;;27.89;52.37
6514;BME280;3290;47.716;9.070;2022-10-16T13:53:34;97103.16;;;28.37;46.95
6514;BME280;3290;47.716;9.070;2022-10-16T13:56:05;97111.06;;;28.42;48.77
6514;BME280;3290;47.716;9.070;2022-10-16T13:58:32;97104.19;;;28.07;48.27
6514;BME280;3290;47.716;9.070;2022-10-16T14:01:03;97113.69;;;27.88;48.93
6514;BME280;3290;47.716;9.070;2022-10-16T14:03:31;97116.19;;;28.01;49.10
6514;BME280;3290;47.716;9.070;2022-10-16T14:05:59;97108.13;;;27.93;48.76
6514;BME280;3290;47.716;9.070;2022-10-16T14:08:27;97116.22;;;27.59;48.52
6514;BME280;3290;47.716;9.070;2022-10-16T14:11:04;97115.44;;;27.76;49.13
6514;BME280;3290;47.716;9.070;2022-10-16T14:13:32;97113.69;;;27.80;50.10
6514;BME280;3290;47.716;9.070;2022-10-16T14:16:04;97113.72;;;28.59;47.80
6514;BME280;3290;47.716;9.070;2022-10-16T14:18:30;97107.56;;;28.50;48.20
6514;BME280;3290;47.716;9.070;2022-10-16T14:21:03;97111.59;;;28.27;49.80
6514;BME280;3290;47.716;9.070;2022-10-16T14:23:30;97114.41;;;27.04;52.53
6514;BME280;3290;47.716;9.070;2022-10-16T14:28:34;97101.47;;;27.40;50.62
6514;BME280;3290;47.716;9.070;2022-10-16T14:31:01;97109.53;;;27.23;51.35
6514;BME280;3290;47.716;9.070;2022-10-16T14:36:13;97112.56;;;26.45;52.15
6514;BME280;3290;47.716;9.070;2022-10-16T14:38:41;97116.00;;;27.14;51.01
6514;BME280;3290;47.716;9.070;2022-10-16T14:41:08;97110.34;;;27.32;50.16
6514;BME280;3290;47.716;9.070;2022-10-16T14:43:39;97105.84;;;27.19;49.68
6514;BME280;3290;47.716;9.070;2022-10-16T14:46:18;97105.28;;;27.39;49.63
6514;BME280;3290;47.716;9.070;2022-10-16T14:48:47;97112.97;;;26.99;49.47
6514;BME280;3290;47.716;9.070;2022-10-16T14:51:16;97115.69;;;26.38;51.13
6514;BME280;3290;47.716;9.070;2022-10-16T14:53:42;97115.19;;;26.06;52.71
6514;BME280;3290;47.716;9.070;2022-10-16T14:56:08;97113.50;;;26.40;52.16
6514;BME280;3290;47.716;9.070;2022-10-16T14:58:39;97113.84;;;26.86;51.58
6514;BME280;3290;47.716;9.070;2022-10-16T15:01:05;97110.94;;;26.35;53.08
6514;BME280;3290;47.716;9.070;2022-10-16T15:03:32;97108.91;;;25.67;54.56
6514;BME280;3290;47.716;9.070;2022-10-16T15:05:57;97116.69;;;25.77;55.50
6514;BME280;3290;47.716;9.070;2022-10-16T15:08:22;97115.41;;;25.96;55.08
6514;BME280;3290;47.716;9.070;2022-10-16T15:10:47;97114.28;;;26.19;53.68
6514;BME280;3290;47.716;9.070;2022-10-16T15:13:13;97117.59;;;26.38;53.97
6514;BME280;3290;47.716;9.070;2022-10-16T15:15:48;97125.63;;;25.64;56.05